sensor_id;sensor_type;location;lat;lon;timestamp;P1;durP1;ratioP1;P2;durP2;ratioP2
35977;SDS011;22056;0.000;0.000;2023-03-03T00:02:02;2.92;;;0.90;;
35977;SDS011;22056;0.000;0.000;2023-03-03T00:04:28;1.85;;;0.98;;
35977;SDS011;22056;0.000;0.000;2023-03-03T00:06:55;3.88;;;0.90;;
35977;SDS011;22056;0.000;0.000;2023-03-03T00:09:21;1.10;;;0.80;;
35977;SDS011;22056;0.000;0.000;2023-03-03T00:11:49;1.27;;;0.80;;
35977;SDS011;22056;0.000;0.000;2023-03-03T00:14:24;1.25;;;0.90;;
35977;SDS011;22056;0.000;0.000;2023-03-03T00:16:50;2.50;;;0.93;;
35977;SDS011;22056;0.000;0.000;2023-03-03T00:19:17;3.28;;;1.00;;
35977;SDS011;22056;0.000;0.000;2023-03-03T00:21:44;1.80;;;0.75;;
35977;SDS011;22056;0.000;0.000;2023-03-03T00:24:22;1.63;;;0.80;;
35977;SDS011;22056;0.000;0.000;2023-03-03T00:29:33;3.50;;;0.93;;
35977;SDS011;22056;0.000;0.000;2023-03-03T00:32:11;2.67;;;0.77;;
35977;SDS011;22056;0.000;0.000;2023-03-03T00:34:41;2.33;;;0.73;;
35977;SDS011;22056;0.000;0.000;2023-03-03T00:37:40;2.30;;;0.70;;
35977;SDS011;22056;0.000;0.000;2023-03-03T00:40:12;0.82;;;0.70;;
35977;SDS011;22056;0.000;0.000;2023-03-03T00:42:42;1.45;;;0.80;;
35977;SDS011;22056;0.000;0.000;2023-03-03T00:45:42;2.85;;;0.85;;
35977;SDS011;22056;0.000;0.000;2023-03-03T00:48:07;1.83;;;0.70;;
35977;SDS011;22056;0.000;0.000;2023-03-03T00:50:34;1.33;;;0.70;;
35977;SDS011;22056;0.000;0.000;2023-03-03T00:53:12;1.10;;;0.73;;
35977;SDS011;22056;0.000;0.000;2023-03-03T00:55:41;1.98;;;0.80;;
35977;SDS011;22056;0.000;0.000;2023-03-03T00:58:07;1.75;;;0.70;;
35977;SDS011;22056;0.000;0.000;2023-03-03T01:00:33;1.42;;;0.80;;
35977;SDS011;22056;0.000;0.000;2023-03-03T01:03:01;1.25;;;0.60;;
35977;SDS011;22056;0.000;0.000;2023-03-03T01:05:27;1.05;;;0.60;;
35977;SDS011;22056;0.000;0.000;2023-03-03T01:07:54;0.93;;;0.70;;
35977;SDS011;22056;0.000;0.000;2023-03-03T01:10:20;1.50;;;0.80;;
35977;SDS011;22056;0.000;0.000;2023-03-03T01:12:46;1.13;;;0.68;;
35977;SDS011;22056;0.000;0.000;2023-03-03T01:15:13;0.90;;;0.60;;
35977;SDS011;22056;0.000;0.000;2023-03-03T01:17:39;0.82;;;0.63;;
35977;SDS011;22056;0.000;0.000;2023-03-03T01:20:06;3.25;;;0.90;;
35977;SDS011;22056;0.000;0.000;2023-03-03T01:22:32;1.10;;;0.70;;
35977;SDS011;22056;0.000;0.000;2023-03-03T01:24:59;0.95;;;0.70;;
35977;SDS011;22056;0.000;0.000;2023-03-03T01:27:27;3.30;;;0.77;;
35977;SDS011;22056;0.000;0.000;2023-03-03T01:29:53;1.42;;;0.82;;
35977;SDS011;22056;0.000;0.000;2023-03-03T01:32:20;1.30;;;0.68;;
35977;SDS011;22056;0.000;0.000;2023-03-03T01:34:47;1.80;;;0.77;;
35977;SDS011;22056;0.000;0.000;2023-03-03T01:37:13;1.15;;;0.70;;
35977;SDS011;22056;0.000;0.000;2023-03-03T01:39:39;1.65;;;0.85;;
35977;SDS011;22056;0.000;0.000;2023-03-03T01:42:05;1.30;;;0.80;;
35977;SDS011;22056;0.000;0.000;2023-03-03T01:44:32;1.38;;;0.73;;
35977;SDS011;22056;0.000;0.000;2023-03-03T01:47:15;2.10;;;0.90;;
35977;SDS011;22056;0.000;0.000;2023-03-03T01:49:55;0.68;;;0.60;;
35977;SDS011;22056;0.000;0.000;2023-03-03T01:52:24;1.30;;;0.80;;
35977;SDS011;22056;0.000;0.000;2023-03-03T01:54:53;0.82;;;0.70;;
35977;SDS011;22056;0.000;0.000;2023-03-03T01:57:23;1.70;;;0.70;;
35977;SDS011;22056;0.000;0.000;2023-03-03T01:59:51;0.90;;;0.60;;
35977;SDS011;22056;0.000;0.000;2023-03-03T02:02:18;1.00;;;0.60;;
35977;SDS011;22056;0.000;0.000;2023-03-03T02:04:44;1.95;;;0.60;;
35977;SDS011;22056;0.000;0.000;2023-03-03T02:07:11;0.82;;;0.60;;
35977;SDS011;22056;0.000;0.000;2023-03-03T02:12:22;1.05;;;0.70;;
35977;SDS011;22056;0.000;0.000;2023-03-03T02:14:48;0.85;;;0.60;;
35977;SDS011;22056;0.000;0.000;2023-03-03T02:17:14;1.13;;;0.75;;
35977;SDS011;22056;0.000;0.000;2023-03-03T02:22:10;1.08;;;0.70;;
35977;SDS011;22056;0.000;0.000;2023-03-03T02:24:54;1.45;;;0.80;;
35977;SDS011;22056;0.000;0.000;2023-03-03T02:27:24;0.75;;;0.63;;
35977;SDS011;22056;0.000;0.000;2023-03-03T02:29:50;0.93;;;0.80;;
35977;SDS011;22056;0.000;0.000;2023-03-03T02:32:16;1.50;;;0.60;;
35977;SDS011;22056;0.000;0.000;2023-03-03T02:34:47;1.10;;;0.80;;
35977;SDS011;22056;0.000;0.000;2023-03-03T02:37:13;1.20;;;0.60;;
35977;SDS011;22056;0.000;0.000;2023-03-03T02:39:40;1.95;;;0.60;;
35977;SDS011;22056;0.000;0.000;2023-03-03T02:44:32;0.73;;;0.50;;
35977;SDS011;22056;0.000;0.000;2023-03-03T02:46:59;0.70;;;0.50;;
35977;SDS011;22056;0.000;0.000;2023-03-03T02:49:29;1.30;;;0.70;;
35977;SDS011;22056;0.000;0.000;2023-03-03T02:51:56;1.20;;;0.85;;
35977;SDS011;22056;0.000;0.000;2023-03-03T02:54:23;0.70;;;0.70;;
35977;SDS011;22056;0.000;0.000;2023-03-03T02:56:49;1.27;;;0.77;;
35977;SDS011;22056;0.000;0.000;2023-03-03T02:59:15;0.73;;;0.50;;
35977;SDS011;22056;0.000;0.000;2023-03-03T03:01:42;0.93;;;0.70;;
35977;SDS011;22056;0.000;0.000;2023-03-03T03:04:09;0.73;;;0.60;;
35977;SDS011;22056;0.000;0.000;2023-03-03T03:06:36;1.08;;;0.70;;
35977;SDS011;22056;0.000;0.000;2023-03-03T03:09:03;1.65;;;0.80;;
35977;SDS011;22056;0.000;0.000;2023-03-03T03:11:29;0.95;;;0.70;;
35977;SDS011;22056;0.000;0.000;2023-03-03T03:13:55;1.23;;;0.77;;
35977;SDS011;22056;0.000;0.000;2023-03-03T03:16:21;0.70;;;0.60;;
35977;SDS011;22056;0.000;0.000;2023-03-03T03:18:47;0.80;;;0.52;;
35977;SDS011;22056;0.000;0.000;2023-03-03T03:21:17;0.70;;;0.60;;
35977;SDS011;22056;0.000;0.000;2023-03-03T03:23:43;1.70;;;0.60;;
35977;SDS011;22056;0.000;0.000;2023-03-03T03:26:09;1.52;;;0.70;;
35977;SDS011;22056;0.000;0.000;2023-03-03T03:28:35;1.00;;;0.73;;
35977;SDS011;22056;0.000;0.000;2023-03-03T03:31:02;0.88;;;0.70;;
35977;SDS011;22056;0.000;0.000;2023-03-03T03:33:28;0.93;;;0.70;;
35977;SDS011;22056;0.000;0.000;2023-03-03T03:35:54;0.73;;;0.70;;
35977;SDS011;22056;0.000;0.000;2023-03-03T03:38:21;2.03;;;0.60;;
35977;SDS011;22056;0.000;0.000;2023-03-03T03:40:48;1.58;;;0.70;;
35977;SDS011;22056;0.000;0.000;2023-03-03T03:43:14;1.13;;;0.90;;
35977;SDS011;22056;0.000;0.000;2023-03-03T03:45:43;1.85;;;0.80;;
35977;SDS011;22056;0.000;0.000;2023-03-03T03:48:10;0.65;;;0.50;;
35977;SDS011;22056;0.000;0.000;2023-03-03T03:50:36;0.70;;;0.70;;
35977;SDS011;22056;0.000;0.000;2023-03-03T03:53:02;0.80;;;0.60;;
35977;SDS011;22056;0.000;0.000;2023-03-03T03:55:29;0.63;;;0.60;;
35977;SDS011;22056;0.000;0.000;2023-03-03T03:57:55;0.60;;;0.60;;
35977;SDS011;22056;0.000;0.000;2023-03-03T04:00:22;1.05;;;0.77;;
35977;SDS011;22056;0.000;0.000;2023-03-03T04:02:48;0.65;;;0.57;;
35977;SDS011;22056;0.000;0.000;2023-03-03T04:05:14;2.15;;;0.80;;
35977;SDS011;22056;0.000;0.000;2023-03-03T04:07:40;1.40;;;0.90;;
35977;SDS011;22056;0.000;0.000;2023-03-03T04:10:07;0.80;;;0.60;;
35977;SDS011;22056;0.000;0.000;2023-03-03T04:12:33;0.65;;;0.57;;
35977;SDS011;22056;0.000;0.000;2023-03-03T04:15:12;1.27;;;0.80;;
35977;SDS011;22056;0.000;0.000;2023-03-03T04:17:38;1.55;;;0.73;;
35977;SDS011;22056;0.000;0.000;2023-03-03T04:20:04;0.95;;;0.73;;
35977;SDS011;22056;0.000;0.000;2023-03-03T04:22:31;0.85;;;0.60;;
35977;SDS011;22056;0.000;0.000;2023-03-03T04:25:02;1.27;;;0.93;;
35977;SDS011;22056;0.000;0.000;2023-03-03T04:27:32;0.83;;;0.70;;
35977;SDS011;22056;0.000;0.000;2023-03-03T04:29:59;0.77;;;0.57;;
35977;SDS011;22056;0.000;0.000;2023-03-03T04:32:25;0.50;;;0.50;;
35977;SDS011;22056;0.000;0.000;2023-03-03T04:34:52;1.30;;;0.70;;
35977;SDS011;22056;0.000;0.000;2023-03-03T04:37:18;0.95;;;0.80;;
35977;SDS011;22056;0.000;0.000;2023-03-03T04:39:44;1.08;;;0.85;;
35977;SDS011;22056;0.000;0.000;2023-03-03T04:42:11;1.58;;;0.70;;
35977;SDS011;22056;0.000;0.000;2023-03-03T04:44:37;1.10;;;0.88;;
35977;SDS011;22056;0.000;0.000;2023-03-03T04:47:03;0.98;;;0.75;;
35977;SDS011;22056;0.000;0.000;2023-03-03T04:49:29;2.83;;;0.80;;
35977;SDS011;22056;0.000;0.000;2023-03-03T04:51:55;0.60;;;0.50;;
35977;SDS011;22056;0.000;0.000;2023-03-03T04:54:21;0.55;;;0.55;;
35977;SDS011;22056;0.000;0.000;2023-03-03T04:56:48;1.15;;;0.70;;
35977;SDS011;22056;0.000;0.000;2023-03-03T04:59:14;0.80;;;0.70;;
35977;SDS011;22056;0.000;0.000;2023-03-03T05:01:40;0.80;;;0.60;;
35977;SDS011;22056;0.000;0.000;2023-03-03T05:04:06;1.05;;;0.77;;
35977;SDS011;22056;0.000;0.000;2023-03-03T05:06:32;1.02;;;0.70;;
35977;SDS011;22056;0.000;0.000;2023-03-03T05:08:58;0.90;;;0.73;;
35977;SDS011;22056;0.000;0.000;2023-03-03T05:11:25;1.00;;;0.68;;
35977;SDS011;22056;0.000;0.000;2023-03-03T05:13:51;1.25;;;0.88;;
35977;SDS011;22056;0.000;0.000;2023-03-03T05:16:17;0.98;;;0.70;;
35977;SDS011;22056;0.000;0.000;2023-03-03T05:18:43;0.85;;;0.70;;
35977;SDS011;22056;0.000;0.000;2023-03-03T05:21:10;1.48;;;0.70;;
35977;SDS011;22056;0.000;0.000;2023-03-03T05:23:36;0.77;;;0.60;;
35977;SDS011;22056;0.000;0.000;2023-03-03T05:26:02;2.10;;;0.93;;
35977;SDS011;22056;0.000;0.000;2023-03-03T05:28:28;2.85;;;0.82;;
35977;SDS011;22056;0.000;0.000;2023-03-03T05:30:55;0.95;;;0.70;;
35977;SDS011;22056;0.000;0.000;2023-03-03T05:33:21;1.60;;;0.88;;
35977;SDS011;22056;0.000;0.000;2023-03-03T05:35:47;1.08;;;0.70;;
35977;SDS011;22056;0.000;0.000;2023-03-03T05:38:18;2.05;;;0.60;;
35977;SDS011;22056;0.000;0.000;2023-03-03T05:40:44;1.52;;;0.80;;
35977;SDS011;22056;0.000;0.000;2023-03-03T05:43:11;1.65;;;0.80;;
35977;SDS011;22056;0.000;0.000;2023-03-03T05:45:38;2.38;;;0.70;;
35977;SDS011;22056;0.000;0.000;2023-03-03T05:48:04;1.60;;;0.80;;
35977;SDS011;22056;0.000;0.000;2023-03-03T05:50:30;1.35;;;0.70;;
35977;SDS011;22056;0.000;0.000;2023-03-03T05:52:56;0.77;;;0.77;;
35977;SDS011;22056;0.000;0.000;2023-03-03T05:55:23;2.38;;;0.70;;
35977;SDS011;22056;0.000;0.000;2023-03-03T05:57:49;1.20;;;0.70;;
35977;SDS011;22056;0.000;0.000;2023-03-03T06:00:15;2.47;;;0.73;;
35977;SDS011;22056;0.000;0.000;2023-03-03T06:02:42;2.03;;;0.93;;
35977;SDS011;22056;0.000;0.000;2023-03-03T06:05:08;0.95;;;0.70;;
35977;SDS011;22056;0.000;0.000;2023-03-03T06:07:37;1.20;;;0.90;;
35977;SDS011;22056;0.000;0.000;2023-03-03T06:10:03;1.98;;;1.00;;
35977;SDS011;22056;0.000;0.000;2023-03-03T06:12:29;3.90;;;0.77;;
35977;SDS011;22056;0.000;0.000;2023-03-03T06:14:55;2.10;;;1.00;;
35977;SDS011;22056;0.000;0.000;2023-03-03T06:17:22;1.20;;;0.80;;
35977;SDS011;22056;0.000;0.000;2023-03-03T06:19:48;2.20;;;0.80;;
35977;SDS011;22056;0.000;0.000;2023-03-03T06:22:14;1.70;;;0.85;;
35977;SDS011;22056;0.000;0.000;2023-03-03T06:24:40;2.85;;;1.10;;
35977;SDS011;22056;0.000;0.000;2023-03-03T06:27:06;3.45;;;1.00;;
35977;SDS011;22056;0.000;0.000;2023-03-03T06:29:33;0.90;;;0.75;;
35977;SDS011;22056;0.000;0.000;2023-03-03T06:31:59;1.90;;;1.05;;
35977;SDS011;22056;0.000;0.000;2023-03-03T06:34:25;2.42;;;0.80;;
35977;SDS011;22056;0.000;0.000;2023-03-03T06:36:51;1.25;;;0.82;;
35977;SDS011;22056;0.000;0.000;2023-03-03T06:39:17;1.98;;;0.95;;
35977;SDS011;22056;0.000;0.000;2023-03-03T06:41:43;2.50;;;1.10;;
35977;SDS011;22056;0.000;0.000;2023-03-03T06:44:09;1.38;;;0.90;;
35977;SDS011;22056;0.000;0.000;2023-03-03T06:46:36;2.42;;;1.00;;
35977;SDS011;22056;0.000;0.000;2023-03-03T06:49:02;1.88;;;0.85;;
35977;SDS011;22056;0.000;0.000;2023-03-03T06:53:55;1.17;;;0.85;;
35977;SDS011;22056;0.000;0.000;2023-03-03T06:56:24;1.95;;;1.20;;
35977;SDS011;22056;0.000;0.000;2023-03-03T06:58:55;1.05;;;0.80;;
35977;SDS011;22056;0.000;0.000;2023-03-03T07:01:21;1.45;;;1.10;;
35977;SDS011;22056;0.000;0.000;2023-03-03T07:03:47;2.63;;;1.20;;
35977;SDS011;22056;0.000;0.000;2023-03-03T07:06:24;1.70;;;1.00;;
35977;SDS011;22056;0.000;0.000;2023-03-03T07:08:51;1.80;;;0.93;;
35977;SDS011;22056;0.000;0.000;2023-03-03T07:11:19;1.60;;;1.00;;
35977;SDS011;22056;0.000;0.000;2023-03-03T07:13:46;3.03;;;1.33;;
35977;SDS011;22056;0.000;0.000;2023-03-03T07:16:13;2.88;;;1.10;;
35977;SDS011;22056;0.000;0.000;2023-03-03T07:18:46;2.55;;;1.08;;
35977;SDS011;22056;0.000;0.000;2023-03-03T07:23:41;3.97;;;0.80;;
35977;SDS011;22056;0.000;0.000;2023-03-03T07:26:09;2.22;;;0.90;;
35977;SDS011;22056;0.000;0.000;2023-03-03T07:28:36;2.75;;;1.00;;
35977;SDS011;22056;0.000;0.000;2023-03-03T07:31:03;1.23;;;0.82;;
35977;SDS011;22056;0.000;0.000;2023-03-03T07:33:42;2.63;;;1.20;;
35977;SDS011;22056;0.000;0.000;2023-03-03T07:38:56;1.92;;;0.90;;
35977;SDS011;22056;0.000;0.000;2023-03-03T07:41:23;2.05;;;1.20;;
35977;SDS011;22056;0.000;0.000;2023-03-03T07:43:59;1.42;;;0.85;;
35977;SDS011;22056;0.000;0.000;2023-03-03T07:49:00;4.20;;;1.27;;
35977;SDS011;22056;0.000;0.000;2023-03-03T07:51:37;1.77;;;0.95;;
35977;SDS011;22056;0.000;0.000;2023-03-03T07:56:38;3.22;;;1.30;;
35977;SDS011;22056;0.000;0.000;2023-03-03T07:59:23;2.70;;;0.80;;
35977;SDS011;22056;0.000;0.000;2023-03-03T08:01:54;2.95;;;1.13;;
35977;SDS011;22056;0.000;0.000;2023-03-03T08:11:50;3.22;;;1.00;;
35977;SDS011;22056;0.000;0.000;2023-03-03T08:14:21;1.80;;;1.02;;
35977;SDS011;22056;0.000;0.000;2023-03-03T08:16:49;3.20;;;1.08;;
35977;SDS011;22056;0.000;0.000;2023-03-03T08:19:16;2.17;;;1.00;;
35977;SDS011;22056;0.000;0.000;2023-03-03T08:21:42;1.88;;;0.90;;
35977;SDS011;22056;0.000;0.000;2023-03-03T08:24:09;4.65;;;1.30;;
35977;SDS011;22056;0.000;0.000;2023-03-03T08:26:35;4.88;;;1.20;;
35977;SDS011;22056;0.000;0.000;2023-03-03T08:29:01;4.28;;;1.23;;
35977;SDS011;22056;0.000;0.000;2023-03-03T08:31:27;6.95;;;1.30;;
35977;SDS011;22056;0.000;0.000;2023-03-03T08:33:53;5.55;;;1.23;;
35977;SDS011;22056;0.000;0.000;2023-03-03T08:36:19;3.50;;;1.13;;
35977;SDS011;22056;0.000;0.000;2023-03-03T08:38:46;3.30;;;1.10;;
35977;SDS011;22056;0.000;0.000;2023-03-03T08:41:12;4.35;;;1.27;;
35977;SDS011;22056;0.000;0.000;2023-03-03T08:43:38;2.85;;;1.02;;
35977;SDS011;22056;0.000;0.000;2023-03-03T08:46:05;3.00;;;1.08;;
35977;SDS011;22056;0.000;0.000;2023-03-03T08:48:32;2.88;;;1.20;;
35977;SDS011;22056;0.000;0.000;2023-03-03T08:50:58;2.70;;;1.00;;
35977;SDS011;22056;0.000;0.000;2023-03-03T08:53:24;2.97;;;1.00;;
35977;SDS011;22056;0.000;0.000;2023-03-03T08:55:51;1.35;;;1.08;;
35977;SDS011;22056;0.000;0.000;2023-03-03T08:58:18;2.90;;;0.95;;
35977;SDS011;22056;0.000;0.000;2023-03-03T09:00:44;4.65;;;1.52;;
35977;SDS011;22056;0.000;0.000;2023-03-03T09:03:10;2.70;;;0.90;;
35977;SDS011;22056;0.000;0.000;2023-03-03T09:05:37;2.10;;;1.10;;
35977;SDS011;22056;0.000;0.000;2023-03-03T09:08:03;3.13;;;1.33;;
35977;SDS011;22056;0.000;0.000;2023-03-03T09:10:30;4.65;;;1.10;;
35977;SDS011;22056;0.000;0.000;2023-03-03T09:12:57;1.50;;;1.02;;
35977;SDS011;22056;0.000;0.000;2023-03-03T09:15:29;2.65;;;1.33;;
35977;SDS011;22056;0.000;0.000;2023-03-03T09:17:59;2.08;;;0.95;;
35977;SDS011;22056;0.000;0.000;2023-03-03T09:20:37;2.08;;;1.13;;
35977;SDS011;22056;0.000;0.000;2023-03-03T09:25:49;2.92;;;1.13;;
35977;SDS011;22056;0.000;0.000;2023-03-03T09:28:28;3.22;;;1.05;;
35977;SDS011;22056;0.000;0.000;2023-03-03T09:30:58;2.35;;;1.00;;
35977;SDS011;22056;0.000;0.000;2023-03-03T09:36:52;2.70;;;1.13;;
35977;SDS011;22056;0.000;0.000;2023-03-03T09:38:46;7.75;;;1.30;;
35977;SDS011;22056;0.000;0.000;2023-03-03T09:44:11;3.45;;;1.35;;
35977;SDS011;22056;0.000;0.000;2023-03-03T09:46:48;3.25;;;1.38;;
35977;SDS011;22056;0.000;0.000;2023-03-03T09:49:30;3.35;;;1.52;;
35977;SDS011;22056;0.000;0.000;2023-03-03T09:54:36;3.72;;;1.50;;
35977;SDS011;22056;0.000;0.000;2023-03-03T09:57:16;2.63;;;1.20;;
35977;SDS011;22056;0.000;0.000;2023-03-03T10:02:50;2.92;;;1.40;;
35977;SDS011;22056;0.000;0.000;2023-03-03T10:05:20;5.13;;;1.88;;
35977;SDS011;22056;0.000;0.000;2023-03-03T10:18:19;1.92;;;1.25;;
35977;SDS011;22056;0.000;0.000;2023-03-03T10:25:53;5.13;;;1.77;;
35977;SDS011;22056;0.000;0.000;2023-03-03T10:33:56;4.75;;;1.50;;
35977;SDS011;22056;0.000;0.000;2023-03-03T10:41:32;2.25;;;1.33;;
35977;SDS011;22056;0.000;0.000;2023-03-03T10:44:08;1.77;;;1.20;;
35977;SDS011;22056;0.000;0.000;2023-03-03T10:46:47;5.03;;;1.70;;
35977;SDS011;22056;0.000;0.000;2023-03-03T11:02:27;4.07;;;1.35;;
35977;SDS011;22056;0.000;0.000;2023-03-03T11:07:39;7.30;;;1.70;;
35977;SDS011;22056;0.000;0.000;2023-03-03T11:10:32;3.03;;;1.48;;
35977;SDS011;22056;0.000;0.000;2023-03-03T11:15:46;1.92;;;1.15;;
35977;SDS011;22056;0.000;0.000;2023-03-03T11:18:15;4.03;;;1.45;;
35977;SDS011;22056;0.000;0.000;2023-03-03T11:20:47;5.15;;;1.27;;
35977;SDS011;22056;0.000;0.000;2023-03-03T11:25:49;2.17;;;1.50;;
35977;SDS011;22056;0.000;0.000;2023-03-03T11:36:08;3.75;;;1.40;;
35977;SDS011;22056;0.000;0.000;2023-03-03T11:38:41;4.95;;;1.50;;
35977;SDS011;22056;0.000;0.000;2023-03-03T11:41:16;5.43;;;1.50;;
35977;SDS011;22056;0.000;0.000;2023-03-03T11:43:46;4.72;;;1.52;;
35977;SDS011;22056;0.000;0.000;2023-03-03T11:46:14;5.88;;;1.50;;
35977;SDS011;22056;0.000;0.000;2023-03-03T11:48:57;5.55;;;1.63;;
35977;SDS011;22056;0.000;0.000;2023-03-03T11:53:54;3.70;;;1.42;;
35977;SDS011;22056;0.000;0.000;2023-03-03T11:56:24;7.43;;;1.50;;
35977;SDS011;22056;0.000;0.000;2023-03-03T12:01:45;7.05;;;1.42;;
35977;SDS011;22056;0.000;0.000;2023-03-03T12:12:12;3.90;;;1.20;;
35977;SDS011;22056;0.000;0.000;2023-03-03T12:19:59;2.28;;;1.13;;
35977;SDS011;22056;0.000;0.000;2023-03-03T12:22:34;2.58;;;0.90;;
35977;SDS011;22056;0.000;0.000;2023-03-03T12:33:09;4.70;;;1.85;;
35977;SDS011;22056;0.000;0.000;2023-03-03T12:40:54;2.95;;;1.00;;
35977;SDS011;22056;0.000;0.000;2023-03-03T12:48:15;2.95;;;1.35;;
35977;SDS011;22056;0.000;0.000;2023-03-03T12:50:46;2.20;;;1.27;;
35977;SDS011;22056;0.000;0.000;2023-03-03T12:56:17;3.75;;;1.00;;
35977;SDS011;22056;0.000;0.000;2023-03-03T13:04:13;3.78;;;1.08;;
35977;SDS011;22056;0.000;0.000;2023-03-03T13:09:22;2.03;;;1.20;;
35977;SDS011;22056;0.000;0.000;2023-03-03T13:12:02;2.45;;;1.00;;
35977;SDS011;22056;0.000;0.000;2023-03-03T13:14:41;3.10;;;1.00;;
35977;SDS011;22056;0.000;0.000;2023-03-03T13:19:43;2.47;;;1.00;;
35977;SDS011;22056;0.000;0.000;2023-03-03T13:22:12;3.53;;;1.10;;
35977;SDS011;22056;0.000;0.000;2023-03-03T13:25:02;2.05;;;0.80;;
35977;SDS011;22056;0.000;0.000;2023-03-03T13:27:41;3.90;;;1.20;;
35977;SDS011;22056;0.000;0.000;2023-03-03T13:32:41;7.00;;;1.27;;
35977;SDS011;22056;0.000;0.000;2023-03-03T13:35:16;2.20;;;0.98;;
35977;SDS011;22056;0.000;0.000;2023-03-03T13:37:45;3.97;;;1.02;;
35977;SDS011;22056;0.000;0.000;2023-03-03T13:42:49;2.13;;;1.08;;
35977;SDS011;22056;0.000;0.000;2023-03-03T13:48:06;4.38;;;1.50;;
35977;SDS011;22056;0.000;0.000;2023-03-03T13:50:57;7.57;;;1.40;;
35977;SDS011;22056;0.000;0.000;2023-03-03T13:53:43;8.90;;;1.58;;
35977;SDS011;22056;0.000;0.000;2023-03-03T13:58:48;7.45;;;1.30;;
35977;SDS011;22056;0.000;0.000;2023-03-03T14:01:26;5.93;;;1.27;;
35977;SDS011;22056;0.000;0.000;2023-03-03T14:03:59;5.15;;;1.27;;
35977;SDS011;22056;0.000;0.000;2023-03-03T14:11:28;2.50;;;0.93;;
35977;SDS011;22056;0.000;0.000;2023-03-03T14:19:09;2.47;;;0.90;;
35977;SDS011;22056;0.000;0.000;2023-03-03T14:24:26;2.92;;;1.17;;
35977;SDS011;22056;0.000;0.000;2023-03-03T14:26:57;5.85;;;1.10;;
35977;SDS011;22056;0.000;0.000;2023-03-03T14:31:56;4.32;;;1.13;;
35977;SDS011;22056;0.000;0.000;2023-03-03T14:36:49;4.75;;;1.20;;
35977;SDS011;22056;0.000;0.000;2023-03-03T14:39:37;7.25;;;1.42;;
35977;SDS011;22056;0.000;0.000;2023-03-03T14:42:05;3.97;;;1.20;;
35977;SDS011;22056;0.000;0.000;2023-03-03T14:44:37;2.20;;;0.93;;
35977;SDS011;22056;0.000;0.000;2023-03-03T14:47:18;3.25;;;1.05;;
35977;SDS011;22056;0.000;0.000;2023-03-03T14:49:46;4.75;;;1.40;;
35977;SDS011;22056;0.000;0.000;2023-03-03T14:54:45;2.47;;;1.10;;
35977;SDS011;22056;0.000;0.000;2023-03-03T14:59:57;4.03;;;1.42;;
35977;SDS011;22056;0.000;0.000;2023-03-03T15:02:31;4.25;;;1.10;;
35977;SDS011;22056;0.000;0.000;2023-03-03T15:05:15;6.70;;;1.48;;
35977;SDS011;22056;0.000;0.000;2023-03-03T15:07:41;3.42;;;0.93;;
35977;SDS011;22056;0.000;0.000;2023-03-03T15:10:09;5.63;;;1.10;;
35977;SDS011;22056;0.000;0.000;2023-03-03T15:12:38;2.95;;;1.08;;
35977;SDS011;22056;0.000;0.000;2023-03-03T15:17:40;2.53;;;0.98;;
35977;SDS011;22056;0.000;0.000;2023-03-03T15:25:27;3.80;;;1.20;;
35977;SDS011;22056;0.000;0.000;2023-03-03T15:30:52;6.75;;;1.50;;
35977;SDS011;22056;0.000;0.000;2023-03-03T15:33:38;2.17;;;1.08;;
35977;SDS011;22056;0.000;0.000;2023-03-03T15:36:07;3.72;;;1.10;;
35977;SDS011;22056;0.000;0.000;2023-03-03T15:38:52;4.90;;;1.05;;
35977;SDS011;22056;0.000;0.000;2023-03-03T15:46:59;3.83;;;1.15;;
35977;SDS011;22056;0.000;0.000;2023-03-03T15:54:41;5.13;;;1.20;;
35977;SDS011;22056;0.000;0.000;2023-03-03T15:57:14;4.35;;;1.00;;
35977;SDS011;22056;0.000;0.000;2023-03-03T16:02:32;9.77;;;1.77;;
35977;SDS011;22056;0.000;0.000;2023-03-03T16:05:03;4.38;;;1.70;;
35977;SDS011;22056;0.000;0.000;2023-03-03T16:07:45;4.80;;;1.08;;
35977;SDS011;22056;0.000;0.000;2023-03-03T16:15:47;2.22;;;0.88;;
35977;SDS011;22056;0.000;0.000;2023-03-03T16:26:09;3.17;;;1.13;;
35977;SDS011;22056;0.000;0.000;2023-03-03T16:33:37;2.15;;;0.90;;
35977;SDS011;22056;0.000;0.000;2023-03-03T16:39:03;2.28;;;1.00;;
35977;SDS011;22056;0.000;0.000;2023-03-03T16:46:47;3.55;;;1.63;;
35977;SDS011;22056;0.000;0.000;2023-03-03T16:49:58;2.83;;;1.08;;
35977;SDS011;22056;0.000;0.000;2023-03-03T16:54:33;9.82;;;1.65;;
35977;SDS011;22056;0.000;0.000;2023-03-03T16:57:46;2.10;;;1.30;;
35977;SDS011;22056;0.000;0.000;2023-03-03T17:00:35;3.22;;;1.05;;
35977;SDS011;22056;0.000;0.000;2023-03-03T17:05:26;3.30;;;1.27;;
35977;SDS011;22056;0.000;0.000;2023-03-03T17:10:23;2.50;;;1.20;;
35977;SDS011;22056;0.000;0.000;2023-03-03T17:18:13;2.90;;;1.10;;
35977;SDS011;22056;0.000;0.000;2023-03-03T17:20:46;2.37;;;1.10;;
35977;SDS011;22056;0.000;0.000;2023-03-03T17:36:28;2.90;;;1.02;;
35977;SDS011;22056;0.000;0.000;2023-03-03T17:38:59;5.03;;;1.30;;
35977;SDS011;22056;0.000;0.000;2023-03-03T17:47:12;3.88;;;1.17;;
35977;SDS011;22056;0.000;0.000;2023-03-03T17:55:09;4.85;;;1.25;;
35977;SDS011;22056;0.000;0.000;2023-03-03T18:00:24;4.10;;;1.45;;
35977;SDS011;22056;0.000;0.000;2023-03-03T18:18:59;3.15;;;1.35;;
35977;SDS011;22056;0.000;0.000;2023-03-03T18:27:27;8.45;;;1.10;;
35977;SDS011;22056;0.000;0.000;2023-03-03T18:46:55;3.97;;;1.20;;
35977;SDS011;22056;0.000;0.000;2023-03-03T18:48:57;4.07;;;1.25;;
35977;SDS011;22056;0.000;0.000;2023-03-03T18:51:45;1.92;;;1.10;;
35977;SDS011;22056;0.000;0.000;2023-03-03T18:56:45;4.75;;;1.02;;
35977;SDS011;22056;0.000;0.000;2023-03-03T19:07:28;3.50;;;1.20;;
35977;SDS011;22056;0.000;0.000;2023-03-03T19:09:55;2.50;;;1.33;;
35977;SDS011;22056;0.000;0.000;2023-03-03T19:17:52;2.28;;;0.88;;
35977;SDS011;22056;0.000;0.000;2023-03-03T19:20:18;3.60;;;1.27;;
35977;SDS011;22056;0.000;0.000;2023-03-03T19:22:47;4.03;;;0.93;;
35977;SDS011;22056;0.000;0.000;2023-03-03T19:25:19;3.47;;;1.20;;
35977;SDS011;22056;0.000;0.000;2023-03-03T19:30:55;1.90;;;1.20;;
35977;SDS011;22056;0.000;0.000;2023-03-03T19:40:53;4.10;;;1.48;;
35977;SDS011;22056;0.000;0.000;2023-03-03T19:43:43;3.53;;;1.08;;
35977;SDS011;22056;0.000;0.000;2023-03-03T19:48:39;3.80;;;1.38;;
35977;SDS011;22056;0.000;0.000;2023-03-03T19:51:14;2.97;;;1.00;;
35977;SDS011;22056;0.000;0.000;2023-03-03T19:53:49;4.10;;;1.30;;
35977;SDS011;22056;0.000;0.000;2023-03-03T20:01:15;1.67;;;1.05;;
35977;SDS011;22056;0.000;0.000;2023-03-03T20:08:58;5.18;;;1.42;;
35977;SDS011;22056;0.000;0.000;2023-03-03T20:11:32;4.72;;;1.10;;
35977;SDS011;22056;0.000;0.000;2023-03-03T20:14:04;2.15;;;1.02;;
35977;SDS011;22056;0.000;0.000;2023-03-03T20:16:38;2.72;;;1.13;;
35977;SDS011;22056;0.000;0.000;2023-03-03T20:21:58;2.67;;;1.00;;
35977;SDS011;22056;0.000;0.000;2023-03-03T20:27:19;2.58;;;1.00;;
35977;SDS011;22056;0.000;0.000;2023-03-03T20:35:16;2.70;;;1.00;;
35977;SDS011;22056;0.000;0.000;2023-03-03T20:37:49;2.28;;;0.90;;
35977;SDS011;22056;0.000;0.000;2023-03-03T20:40:23;2.53;;;1.05;;
35977;SDS011;22056;0.000;0.000;2023-03-03T20:42:57;3.13;;;0.90;;
35977;SDS011;22056;0.000;0.000;2023-03-03T20:53:29;1.95;;;0.80;;
35977;SDS011;22056;0.000;0.000;2023-03-03T20:56:07;4.53;;;1.17;;
35977;SDS011;22056;0.000;0.000;2023-03-03T21:01:08;3.22;;;1.10;;
35977;SDS011;22056;0.000;0.000;2023-03-03T21:03:39;3.35;;;0.90;;
35977;SDS011;22056;0.000;0.000;2023-03-03T21:06:14;5.93;;;1.00;;
35977;SDS011;22056;0.000;0.000;2023-03-03T21:11:10;2.67;;;1.20;;
35977;SDS011;22056;0.000;0.000;2023-03-03T21:13:38;2.67;;;0.90;;
35977;SDS011;22056;0.000;0.000;2023-03-03T21:19:02;3.05;;;0.90;;
35977;SDS011;22056;0.000;0.000;2023-03-03T21:21:30;4.45;;;1.23;;
35977;SDS011;22056;0.000;0.000;2023-03-03T21:23:56;3.80;;;1.15;;
35977;SDS011;22056;0.000;0.000;2023-03-03T21:29:08;1.88;;;0.93;;
35977;SDS011;22056;0.000;0.000;2023-03-03T21:34:16;3.05;;;1.02;;
35977;SDS011;22056;0.000;0.000;2023-03-03T21:39:27;2.35;;;0.90;;
35977;SDS011;22056;0.000;0.000;2023-03-03T21:41:55;4.43;;;1.00;;
35977;SDS011;22056;0.000;0.000;2023-03-03T21:44:32;2.60;;;0.90;;